createdAt,value
2022-09-14T00:00:06.122Z,4.50
2022-09-14T00:02:39.128Z,7.72
2022-09-14T00:05:14.824Z,5.38
2022-09-14T00:07:50.434Z,6.72
2022-09-14T00:10:33.412Z,5.97
2022-09-14T00:13:13.548Z,5.90
2022-09-14T00:15:49.596Z,4.18
2022-09-14T00:18:16.585Z,10.80
2022-09-14T00:20:43.745Z,6.05
2022-09-14T00:23:19.029Z,3.83
2022-09-14T00:25:52.292Z,5.18
2022-09-14T00:28:36.578Z,5.28
2022-09-14T00:31:09.871Z,5.10
2022-09-14T00:33:37.603Z,3.85
2022-09-14T00:36:10.229Z,4.70
2022-09-14T00:38:44.662Z,4.28
2022-09-14T00:41:15.213Z,4.88
2022-09-14T00:43:53.714Z,4.00
2022-09-14T00:46:33.435Z,6.95
2022-09-14T00:49:30.146Z,8.23
2022-09-14T00:52:12.284Z,6.10
2022-09-14T00:55:02.269Z,5.78
2022-09-14T00:57:40.357Z,3.50
2022-09-14T01:00:20.140Z,6.53
2022-09-14T01:02:58.366Z,5.55
2022-09-14T01:05:59.308Z,3.58
2022-09-14T01:08:43.461Z,6.70
2022-09-14T01:11:22.524Z,7.00
2022-09-14T01:14:07.716Z,5.72
2022-09-14T01:16:47.517Z,4.75
2022-09-14T01:20:03.104Z,3.83
2022-09-14T01:22:48.729Z,5.53
2022-09-14T01:25:28.034Z,7.13
2022-09-14T01:28:03.537Z,3.58
2022-09-14T01:30:36.368Z,4.80
2022-09-14T01:33:20.923Z,7.30
2022-09-14T01:36:03.524Z,4.00
2022-09-14T01:38:58.669Z,7.78
2022-09-14T01:41:44.925Z,5.88
2022-09-14T01:44:18.456Z,7.20
2022-09-14T01:46:51.703Z,6.47
2022-09-14T01:49:35.263Z,4.38
2022-09-14T01:52:30.675Z,4.90
2022-09-14T01:55:10.109Z,9.15
2022-09-14T01:57:45.971Z,4.68
2022-09-14T02:00:16.987Z,7.70
2022-09-14T02:02:57.280Z,7.82
2022-09-14T02:05:39.764Z,8.65
2022-09-14T02:08:09.836Z,6.13
2022-09-14T02:10:37.637Z,5.38
2022-09-14T02:13:13.126Z,5.10
2022-09-14T02:15:46.190Z,5.47
2022-09-14T02:18:13.195Z,7.72
2022-09-14T02:20:54.792Z,5.72
2022-09-14T02:23:30.574Z,9.38
2022-09-14T02:26:00.814Z,6.33
2022-09-14T02:28:33.345Z,5.82
2022-09-14T02:31:41.142Z,6.38
2022-09-14T02:34:32.347Z,6.32
2022-09-14T02:37:14.124Z,8.55
2022-09-14T02:40:02.795Z,6.13
2022-09-14T02:42:57.118Z,6.63
2022-09-14T02:48:32.373Z,9.75
2022-09-14T02:51:40.740Z,8.45
2022-09-14T02:54:28.179Z,8.80
2022-09-14T02:57:16.864Z,7.03
2022-09-14T02:59:49.518Z,10.52
2022-09-14T03:02:28.113Z,8.55
2022-09-14T03:05:03.443Z,10.88
2022-09-14T03:07:41.253Z,9.13
2022-09-14T03:10:18.891Z,9.57
2022-09-14T03:12:54.896Z,10.27
2022-09-14T03:15:22.076Z,10.25
2022-09-14T03:17:57.382Z,13.00
2022-09-14T03:20:38.433Z,10.63
2022-09-14T03:23:12.237Z,10.88
2022-09-14T03:28:32.949Z,9.68
2022-09-14T03:31:08.671Z,10.90
2022-09-14T03:33:41.787Z,13.82
2022-09-14T03:36:19.183Z,11.93
2022-09-14T03:38:55.666Z,12.73
2022-09-14T03:41:34.837Z,13.52
2022-09-14T03:44:15.648Z,13.50
2022-09-14T03:46:51.786Z,15.63
2022-09-14T03:49:24.571Z,15.55
2022-09-14T03:52:00.132Z,15.40
2022-09-14T03:54:38.032Z,15.23
2022-09-14T03:57:10.668Z,15.55
2022-09-14T03:59:43.924Z,13.48
2022-09-14T04:02:21.699Z,14.48
2022-09-14T04:04:57.535Z,16.95
2022-09-14T04:07:30.297Z,15.68
2022-09-14T04:10:10.850Z,16.33
2022-09-14T04:15:36.332Z,14.98
2022-09-14T04:18:14.999Z,16.40
2022-09-14T04:21:08.001Z,13.98
2022-09-14T04:24:13.924Z,14.45
2022-09-14T04:26:51.407Z,13.73
2022-09-14T04:29:18.405Z,19.75
2022-09-14T04:31:53.196Z,14.48
2022-09-14T04:34:28.998Z,14.63
2022-09-14T04:36:59.054Z,14.75
2022-09-14T04:39:32.868Z,15.35
2022-09-14T04:42:11.328Z,17.00
2022-09-14T04:44:44.447Z,20.02
2022-09-14T04:47:19.468Z,17.50
2022-09-14T04:49:46.443Z,21.05
2022-09-14T04:52:26.697Z,19.27
2022-09-14T04:55:10.233Z,21.05
2022-09-14T04:57:45.861Z,22.35
2022-09-14T05:00:30.586Z,23.38
2022-09-14T05:03:08.860Z,23.95
2022-09-14T05:05:47.418Z,24.60
2022-09-14T05:08:25.098Z,27.67
2022-09-14T05:11:03.684Z,26.42
2022-09-14T05:13:38.209Z,25.98
2022-09-14T05:16:29.191Z,33.33
2022-09-14T05:19:11.999Z,27.13
2022-09-14T05:21:39.022Z,18.98
2022-09-14T05:24:15.287Z,11.20
2022-09-14T05:26:49.403Z,10.60
2022-09-14T05:29:27.157Z,13.70
2022-09-14T05:32:00.339Z,11.07
2022-09-14T05:34:30.393Z,9.77
2022-09-14T05:37:08.401Z,11.20
2022-09-14T05:39:45.396Z,11.23
2022-09-14T05:42:12.376Z,11.98
2022-09-14T05:44:53.863Z,8.30
2022-09-14T05:47:23.606Z,10.82
2022-09-14T05:49:53.215Z,11.82
2022-09-14T05:52:42.925Z,10.40
2022-09-14T05:55:16.700Z,9.73
2022-09-14T06:00:20.319Z,9.50
2022-09-14T06:03:01.155Z,11.82
2022-09-14T06:05:30.203Z,9.48
2022-09-14T06:08:12.072Z,10.25
2022-09-14T06:10:56.795Z,11.52
2022-09-14T06:13:29.718Z,13.40
2022-09-14T06:16:04.692Z,15.43
2022-09-14T06:18:33.805Z,7.10
2022-09-14T06:21:07.518Z,6.63
2022-09-14T06:23:44.590Z,8.75
2022-09-14T06:26:12.324Z,9.40
2022-09-14T06:28:55.793Z,6.60
2022-09-14T06:31:28.877Z,9.15
2022-09-14T06:34:03.959Z,5.25
2022-09-14T06:36:40.852Z,10.10
2022-09-14T06:39:10.805Z,5.72
2022-09-14T06:41:40.470Z,7.45
2022-09-14T06:44:28.001Z,5.55
2022-09-14T06:47:06.339Z,7.97
2022-09-14T06:49:38.907Z,12.27
2022-09-14T06:52:10.885Z,13.85
2022-09-14T06:54:40.560Z,6.72
2022-09-14T06:57:23.316Z,7.85
2022-09-14T06:59:58.624Z,7.68
2022-09-14T07:02:34.947Z,8.68
2022-09-14T07:05:05.121Z,9.15
2022-09-14T07:07:43.182Z,6.10
2022-09-14T07:10:11.830Z,6.97
2022-09-14T07:12:39.275Z,6.03
2022-09-14T07:15:09.148Z,9.20
2022-09-14T07:17:40.298Z,9.45
2022-09-14T07:20:11.534Z,5.85
2022-09-14T07:22:41.612Z,11.98
2022-09-14T07:25:14.133Z,8.50
2022-09-14T07:27:51.805Z,5.38
2022-09-14T07:30:30.526Z,8.45
2022-09-14T07:33:11.689Z,7.00
2022-09-14T07:35:43.129Z,10.55
2022-09-14T07:38:10.086Z,6.43
2022-09-14T07:40:57.631Z,8.98
2022-09-14T07:43:28.293Z,9.25
2022-09-14T07:45:58.512Z,5.78
2022-09-14T07:48:28.065Z,7.63
2022-09-14T07:51:10.429Z,10.30
2022-09-14T07:53:50.854Z,10.90
2022-09-14T07:56:26.019Z,10.90
2022-09-14T07:59:17.136Z,14.90
2022-09-14T08:02:15.564Z,13.68
2022-09-14T08:04:49.011Z,9.45
2022-09-14T08:07:24.923Z,12.05
2022-09-14T08:09:51.872Z,10.48
2022-09-14T08:12:21.585Z,11.23
2022-09-14T08:14:56.411Z,8.23
2022-09-14T08:17:31.457Z,5.65
2022-09-14T08:20:06.931Z,8.77
2022-09-14T08:22:39.531Z,8.05
2022-09-14T08:28:04.916Z,9.65
2022-09-14T08:30:44.925Z,10.30
2022-09-14T08:33:20.058Z,10.18
2022-09-14T08:35:58.094Z,8.35
2022-09-14T08:38:32.706Z,8.38
2022-09-14T08:41:18.817Z,6.28
2022-09-14T08:43:59.244Z,7.85
2022-09-14T08:46:43.968Z,7.38
2022-09-14T08:49:27.774Z,10.50
2022-09-14T08:52:34.606Z,8.10
2022-09-14T08:55:24.710Z,8.35
2022-09-14T08:58:52.609Z,10.95
2022-09-14T09:01:54.443Z,11.32
2022-09-14T09:04:37.899Z,12.80
2022-09-14T09:07:36.974Z,12.10
2022-09-14T09:10:10.888Z,13.20
2022-09-14T09:13:11.875Z,8.73
2022-09-14T09:15:57.411Z,7.70
2022-09-14T09:18:58.074Z,7.35
2022-09-14T09:21:50.865Z,12.10
2022-09-14T09:24:58.315Z,10.82
2022-09-14T09:27:36.117Z,8.85
2022-09-14T09:30:27.341Z,8.38
2022-09-14T09:33:04.821Z,9.00
2022-09-14T09:36:04.764Z,8.55
2022-09-14T09:38:42.021Z,7.88
2022-09-14T09:41:33.420Z,7.32
2022-09-14T09:44:21.056Z,7.63
2022-09-14T09:47:09.902Z,10.77
2022-09-14T09:50:08.391Z,7.00
2022-09-14T09:52:49.723Z,7.30
2022-09-14T09:55:40.131Z,10.50
2022-09-14T09:58:41.063Z,7.45
2022-09-14T10:01:38.122Z,9.23
2022-09-14T10:04:33.193Z,8.07
2022-09-14T10:07:33.564Z,8.10
2022-09-14T10:13:07.474Z,10.57
2022-09-14T10:15:52.841Z,8.13
2022-09-14T10:18:36.506Z,6.63
2022-09-14T10:21:17.495Z,11.00
2022-09-14T10:24:06.749Z,7.10
2022-09-14T10:26:40.574Z,9.98
2022-09-14T10:29:33.222Z,8.20
2022-09-14T10:32:17.849Z,8.32
2022-09-14T10:34:45.125Z,9.52
2022-09-14T10:37:32.940Z,11.27
2022-09-14T10:40:23.722Z,12.93
2022-09-14T10:43:31.706Z,11.43
2022-09-14T10:46:10.460Z,6.95
2022-09-14T10:49:03.389Z,12.70
2022-09-14T10:51:55.718Z,9.30
2022-09-14T10:54:54.568Z,13.38
2022-09-14T10:57:56.090Z,9.27
2022-09-14T11:00:45.362Z,7.43
2022-09-14T11:03:53.436Z,12.45
2022-09-14T11:06:42.101Z,13.00
2022-09-14T11:09:29.012Z,10.05
2022-09-14T11:12:11.930Z,8.15
2022-09-14T11:15:03.198Z,8.63
2022-09-14T11:17:48.611Z,7.25
2022-09-14T11:20:17.529Z,10.55
2022-09-14T11:23:18.157Z,11.32
2022-09-14T11:26:00.706Z,9.32
2022-09-14T11:28:38.505Z,12.15
2022-09-14T11:32:16.909Z,8.07
2022-09-14T11:34:57.157Z,8.32
2022-09-14T11:37:44.953Z,9.98
2022-09-14T11:40:25.481Z,8.82
2022-09-14T11:43:03.482Z,11.77
2022-09-14T11:45:44.529Z,9.65
2022-09-14T11:48:46.466Z,6.93
2022-09-14T11:51:23.350Z,9.48
2022-09-14T11:53:58.901Z,9.35
2022-09-14T11:56:34.091Z,13.43
2022-09-14T11:59:32.987Z,10.50
2022-09-14T12:02:25.193Z,8.85
2022-09-14T12:05:16.426Z,6.63
2022-09-14T12:07:43.690Z,12.15
2022-09-14T12:10:19.530Z,8.20
2022-09-14T12:12:58.234Z,10.77
2022-09-14T12:15:27.839Z,8.82
2022-09-14T12:18:21.337Z,7.38
2022-09-14T12:21:08.252Z,8.02
2022-09-14T12:23:48.336Z,12.68
2022-09-14T12:26:29.458Z,10.95
2022-09-14T12:29:19.872Z,11.38
2022-09-14T12:31:51.655Z,9.07
2022-09-14T12:34:34.837Z,7.40
2022-09-14T12:37:35.371Z,7.85
2022-09-14T12:40:38.666Z,9.00
2022-09-14T12:43:36.557Z,7.45
2022-09-14T12:46:24.704Z,6.78
2022-09-14T12:48:59.033Z,7.15
2022-09-14T12:51:47.087Z,8.02
2022-09-14T12:54:51.523Z,7.60
2022-09-14T12:57:48.647Z,6.20
2022-09-14T13:00:31.761Z,6.47
2022-09-14T13:03:20.470Z,7.93
2022-09-14T13:06:07.043Z,8.90
2022-09-14T13:11:26.777Z,3.97
2022-09-14T13:14:03.806Z,4.00
2022-09-14T13:16:48.141Z,6.20
2022-09-14T13:19:27.629Z,6.10
2022-09-14T13:22:01.505Z,2.60
2022-09-14T13:24:55.361Z,4.13
2022-09-14T13:27:33.304Z,7.65
2022-09-14T13:30:22.931Z,6.80
2022-09-14T13:33:11.162Z,6.00
2022-09-14T13:35:52.682Z,4.55
2022-09-14T13:38:41.095Z,3.83
2022-09-14T13:41:35.022Z,5.43
2022-09-14T13:44:22.496Z,7.57
2022-09-14T13:46:52.736Z,4.50
2022-09-14T13:49:28.244Z,4.32
2022-09-14T13:52:25.903Z,5.25
2022-09-14T13:55:28.963Z,11.15
2022-09-14T13:58:10.801Z,6.80
2022-09-14T14:01:00.933Z,6.25
2022-09-14T14:03:55.380Z,6.40
2022-09-14T14:06:35.579Z,6.13
2022-09-14T14:09:09.832Z,6.68
2022-09-14T14:11:54.988Z,4.88
2022-09-14T14:14:31.166Z,6.22
2022-09-14T14:17:34.914Z,9.40
2022-09-14T14:20:35.692Z,10.65
2022-09-14T14:23:11.813Z,9.90
2022-09-14T14:26:10.495Z,5.93
2022-09-14T14:28:37.725Z,5.28
2022-09-14T14:31:32.934Z,6.25
2022-09-14T14:34:26.220Z,8.18
2022-09-14T14:36:56.920Z,6.20
2022-09-14T14:39:27.069Z,6.53
2022-09-14T14:42:05.736Z,8.13
2022-09-14T14:44:44.819Z,6.68
2022-09-14T14:47:16.802Z,9.23
2022-09-14T14:49:56.881Z,7.10
2022-09-14T14:52:33.535Z,9.52
2022-09-14T14:55:18.356Z,6.47
2022-09-14T14:58:01.082Z,6.05
2022-09-14T15:00:36.300Z,10.15
2022-09-14T15:03:18.834Z,4.25
2022-09-14T15:05:53.200Z,5.47
2022-09-14T15:08:20.227Z,5.15
2022-09-14T15:10:59.990Z,5.18
2022-09-14T15:13:43.286Z,4.63
2022-09-14T15:16:13.318Z,3.55
2022-09-14T15:18:44.203Z,4.53
2022-09-14T15:21:34.143Z,3.25
2022-09-14T15:24:29.044Z,4.10
2022-09-14T15:27:02.163Z,7.38
2022-09-14T15:29:35.197Z,5.28
2022-09-14T15:32:08.453Z,3.83
2022-09-14T15:34:42.604Z,8.07
2022-09-14T15:37:13.285Z,4.05
2022-09-14T15:39:50.327Z,6.57
2022-09-14T15:42:27.369Z,6.40
2022-09-14T15:45:09.010Z,5.25
2022-09-14T15:47:36.825Z,5.80
2022-09-14T15:50:13.500Z,4.28
2022-09-14T15:52:51.082Z,5.85
2022-09-14T15:55:24.283Z,5.03
2022-09-14T15:57:52.426Z,5.22
2022-09-14T16:00:24.945Z,10.27
2022-09-14T16:02:58.590Z,4.03
2022-09-14T16:05:34.323Z,6.03
2022-09-14T16:08:07.550Z,5.65
2022-09-14T16:10:43.009Z,4.70
2022-09-14T16:13:13.161Z,7.63
2022-09-14T16:15:42.519Z,9.93
2022-09-14T16:18:14.242Z,3.67
2022-09-14T16:20:44.061Z,3.40
2022-09-14T16:23:11.395Z,5.43
2022-09-14T16:25:43.121Z,3.90
2022-09-14T16:28:17.703Z,7.03
2022-09-14T16:30:48.354Z,6.60
2022-09-14T16:33:20.542Z,4.15
2022-09-14T16:35:53.417Z,4.78
2022-09-14T16:38:30.315Z,6.13
2022-09-14T16:41:10.181Z,5.30
2022-09-14T16:43:40.505Z,6.47
2022-09-14T16:46:13.321Z,7.32
2022-09-14T16:48:47.330Z,10.00
2022-09-14T16:51:30.999Z,12.43
2022-09-14T16:54:03.671Z,5.65
2022-09-14T16:56:42.555Z,6.67
2022-09-14T16:59:10.731Z,8.68
2022-09-14T17:01:43.929Z,11.18
2022-09-14T17:04:22.265Z,14.50
2022-09-14T17:06:52.223Z,8.15
2022-09-14T17:09:33.404Z,12.80
2022-09-14T17:12:00.794Z,4.78
2022-09-14T17:14:34.141Z,4.82
2022-09-14T17:17:04.852Z,5.38
2022-09-14T17:19:38.549Z,9.75
2022-09-14T17:22:14.169Z,6.75
2022-09-14T17:24:49.512Z,8.95
2022-09-14T17:27:25.923Z,8.77
2022-09-14T17:29:55.953Z,11.60
2022-09-14T17:32:38.213Z,8.83
2022-09-14T17:35:05.824Z,6.40
2022-09-14T17:37:41.129Z,5.82
2022-09-14T17:40:15.292Z,8.88
2022-09-14T17:42:46.776Z,11.50
2022-09-14T17:45:22.657Z,8.43
2022-09-14T17:47:53.416Z,7.88
2022-09-14T17:50:21.558Z,10.77
2022-09-14T17:52:54.031Z,8.25
2022-09-14T17:55:21.207Z,10.10
2022-09-14T17:57:51.068Z,11.60
2022-09-14T18:03:09.177Z,14.02
2022-09-14T18:05:46.782Z,9.70
2022-09-14T18:08:16.795Z,8.45
2022-09-14T18:10:54.403Z,8.43
2022-09-14T18:13:24.467Z,8.45
2022-09-14T18:15:58.624Z,5.70
2022-09-14T18:18:38.226Z,7.22
2022-09-14T18:21:12.132Z,6.90
2022-09-14T18:23:53.520Z,7.40
2022-09-14T18:26:30.947Z,11.43
2022-09-14T18:29:08.041Z,10.98
2022-09-14T18:31:41.501Z,7.82
2022-09-14T18:34:08.529Z,7.38
2022-09-14T18:36:46.811Z,12.00
2022-09-14T18:39:17.628Z,8.02
2022-09-14T18:41:51.895Z,6.60
2022-09-14T18:44:23.405Z,8.40
2022-09-14T18:47:00.071Z,8.90
2022-09-14T18:49:35.232Z,8.88
2022-09-14T18:52:03.069Z,6.53
2022-09-14T18:57:09.778Z,14.68
2022-09-14T18:59:49.557Z,8.10
2022-09-14T19:02:26.462Z,9.27
2022-09-14T19:04:54.205Z,14.80
2022-09-14T19:07:28.579Z,11.98
2022-09-14T19:09:58.667Z,11.27
2022-09-14T19:12:34.630Z,9.70
2022-09-14T19:15:11.727Z,10.68
2022-09-14T19:17:42.252Z,9.48
2022-09-14T19:20:15.737Z,10.75
2022-09-14T19:22:48.439Z,10.73
2022-09-14T19:25:21.126Z,9.73
2022-09-14T19:27:52.186Z,10.00
2022-09-14T19:30:20.573Z,11.23
2022-09-14T19:32:50.485Z,11.55
2022-09-14T19:35:20.911Z,12.25
2022-09-14T19:37:57.872Z,12.57
2022-09-14T19:40:25.895Z,17.85
2022-09-14T19:42:57.307Z,15.85
2022-09-14T19:45:31.735Z,18.10
2022-09-14T19:48:07.205Z,16.38
2022-09-14T19:50:39.753Z,17.02
2022-09-14T19:53:18.888Z,17.05
2022-09-14T19:55:53.260Z,16.70
2022-09-14T19:58:24.555Z,15.93
2022-09-14T20:01:01.465Z,15.00
2022-09-14T20:03:33.445Z,15.70
2022-09-14T20:06:14.039Z,14.00
2022-09-14T20:08:43.915Z,13.52
2022-09-14T20:11:20.258Z,11.98
2022-09-14T20:13:55.643Z,11.38
2022-09-14T20:16:35.847Z,12.93
2022-09-14T20:19:28.215Z,13.23
2022-09-14T20:22:03.760Z,12.27
2022-09-14T20:24:34.735Z,15.90
2022-09-14T20:27:10.250Z,25.25
2022-09-14T20:29:40.930Z,28.45
2022-09-14T20:32:19.630Z,33.30
2022-09-14T20:34:47.279Z,30.00
2022-09-14T20:37:39.147Z,31.83
2022-09-14T20:40:18.913Z,29.25
2022-09-14T20:42:48.935Z,28.67
2022-09-14T20:45:19.734Z,29.60
2022-09-14T20:47:52.324Z,30.15
2022-09-14T20:50:22.286Z,31.02
2022-09-14T20:52:49.262Z,32.17
2022-09-14T20:55:17.891Z,28.17
2022-09-14T20:58:06.722Z,27.40
2022-09-14T21:00:39.287Z,26.45
2022-09-14T21:03:06.409Z,26.92
2022-09-14T21:05:41.430Z,26.40
2022-09-14T21:08:16.932Z,29.60
2022-09-14T21:10:47.069Z,29.33
2022-09-14T21:13:32.163Z,27.52
2022-09-14T21:16:02.812Z,27.05
2022-09-14T21:18:37.639Z,27.38
2022-09-14T21:21:16.115Z,29.58
2022-09-14T21:23:49.197Z,29.38
2022-09-14T21:26:20.711Z,30.67
2022-09-14T21:28:48.360Z,26.90
2022-09-14T21:31:22.817Z,27.02
2022-09-14T21:34:06.605Z,26.33
2022-09-14T21:36:43.404Z,29.67
2022-09-14T21:39:24.795Z,27.45
2022-09-14T21:42:08.039Z,28.75
2022-09-14T21:44:42.345Z,25.60
2022-09-14T21:47:12.251Z,27.35
2022-09-14T21:49:40.001Z,23.83
2022-09-14T21:52:15.746Z,24.48
2022-09-14T21:54:45.861Z,22.40
2022-09-14T22:00:08.958Z,24.08
2022-09-14T22:02:44.799Z,25.95
2022-09-14T22:05:12.929Z,24.70
2022-09-14T22:07:49.138Z,25.65
2022-09-14T22:10:21.914Z,22.90
2022-09-14T22:13:08.231Z,24.57
2022-09-14T22:15:35.297Z,24.98
2022-09-14T22:18:08.036Z,24.20
2022-09-14T22:20:37.974Z,24.48
2022-09-14T22:23:08.032Z,24.95
2022-09-14T22:25:43.017Z,25.90
2022-09-14T22:28:10.389Z,26.05
2022-09-14T22:30:57.740Z,27.15
2022-09-14T22:33:29.616Z,26.20
2022-09-14T22:36:06.628Z,25.73
2022-09-14T22:38:35.177Z,27.85
2022-09-14T22:41:10.542Z,26.88
2022-09-14T22:43:41.750Z,27.42
2022-09-14T22:46:17.898Z,24.80
2022-09-14T22:48:55.034Z,26.13
2022-09-14T22:51:29.129Z,24.67
2022-09-14T22:54:02.662Z,25.77
2022-09-14T22:56:39.458Z,22.05
2022-09-14T22:59:09.514Z,20.20
2022-09-14T23:01:42.619Z,22.75
2022-09-14T23:04:15.612Z,22.05
2022-09-14T23:06:47.935Z,25.00
2022-09-14T23:09:23.999Z,19.50
2022-09-14T23:12:05.895Z,21.70
2022-09-14T23:14:38.349Z,22.52
2022-09-14T23:17:16.192Z,23.75
2022-09-14T23:20:10.721Z,24.60
2022-09-14T23:22:38.380Z,23.25
2022-09-14T23:25:15.757Z,23.13
2022-09-14T23:27:46.128Z,24.42
2022-09-14T23:30:18.764Z,25.95
2022-09-14T23:32:52.727Z,23.27
2022-09-14T23:35:20.424Z,23.13
2022-09-14T23:37:53.206Z,24.15
2022-09-14T23:40:38.213Z,23.03
2022-09-14T23:43:11.915Z,21.45
2022-09-14T23:45:45.620Z,22.58
2022-09-14T23:48:16.317Z,24.75
2022-09-14T23:50:50.085Z,22.17
2022-09-14T23:53:20.612Z,22.67
2022-09-14T23:55:50.242Z,25.10
2022-09-14T23:58:42.063Z,23.55
